sensor_id;sensor_type;location;lat;lon;timestamp;temperature;humidity
66752;SHT31;53663;42.676;23.238;2023-04-08T00:00:56;4.82;70.51
66752;SHT31;53663;42.676;23.238;2023-04-08T00:03:22;4.81;70.94
66752;SHT31;53663;42.676;23.238;2023-04-08T00:05:47;4.81;70.28
66752;SHT31;53663;42.676;23.238;2023-04-08T00:08:13;4.78;70.40
66752;SHT31;53663;42.676;23.238;2023-04-08T00:10:38;4.79;70.06
66752;SHT31;53663;42.676;23.238;2023-04-08T00:13:04;4.76;70.05
66752;SHT31;53663;42.676;23.238;2023-04-08T00:15:30;4.71;70.34
66752;SHT31;53663;42.676;23.238;2023-04-08T00:17:55;4.71;70.59
66752;SHT31;53663;42.676;23.238;2023-04-08T00:20:22;4.71;70.60
66752;SHT31;53663;42.676;23.238;2023-04-08T00:22:48;4.72;70.58
66752;SHT31;53663;42.676;23.238;2023-04-08T00:25:13;4.73;70.56
66752;SHT31;53663;42.676;23.238;2023-04-08T00:27:39;4.67;70.61
66752;SHT31;53663;42.676;23.238;2023-04-08T00:30:05;4.62;70.84
66752;SHT31;53663;42.676;23.238;2023-04-08T00:32:30;4.58;70.63
66752;SHT31;53663;42.676;23.238;2023-04-08T00:34:57;4.61;70.43
66752;SHT31;53663;42.676;23.238;2023-04-08T00:37:23;4.57;70.36
66752;SHT31;53663;42.676;23.238;2023-04-08T00:39:49;4.44;71.17
66752;SHT31;53663;42.676;23.238;2023-04-08T00:42:16;4.51;70.69
66752;SHT31;53663;42.676;23.238;2023-04-08T00:44:41;4.41;70.87
66752;SHT31;53663;42.676;23.238;2023-04-08T00:47:11;4.36;71.17
66752;SHT31;53663;42.676;23.238;2023-04-08T00:49:37;4.40;70.78
66752;SHT31;53663;42.676;23.238;2023-04-08T00:52:03;4.37;71.59
66752;SHT31;53663;42.676;23.238;2023-04-08T00:54:29;4.34;71.95
66752;SHT31;53663;42.676;23.238;2023-04-08T00:56:56;4.25;71.66
66752;SHT31;53663;42.676;23.238;2023-04-08T00:59:24;4.36;71.27
66752;SHT31;53663;42.676;23.238;2023-04-08T01:05:01;4.51;71.41
66752;SHT31;53663;42.676;23.238;2023-04-08T01:07:31;4.48;71.43
66752;SHT31;53663;42.676;23.238;2023-04-08T01:10:42;4.44;71.31
66752;SHT31;53663;42.676;23.238;2023-04-08T01:12:55;4.54;71.40
66752;SHT31;53663;42.676;23.238;2023-04-08T01:15:23;4.54;71.00
66752;SHT31;53663;42.676;23.238;2023-04-08T01:17:53;4.54;70.87
66752;SHT31;53663;42.676;23.238;2023-04-08T01:20:20;4.58;71.13
66752;SHT31;53663;42.676;23.238;2023-04-08T01:25:26;4.37;71.53
66752;SHT31;53663;42.676;23.238;2023-04-08T01:27:55;4.34;71.91
66752;SHT31;53663;42.676;23.238;2023-04-08T01:30:24;4.43;72.42
66752;SHT31;53663;42.676;23.238;2023-04-08T01:32:52;4.45;71.99
66752;SHT31;53663;42.676;23.238;2023-04-08T01:35:20;4.47;72.35
66752;SHT31;53663;42.676;23.238;2023-04-08T01:37:49;4.52;72.33
66752;SHT31;53663;42.676;23.238;2023-04-08T01:40:16;4.48;72.43
66752;SHT31;53663;42.676;23.238;2023-04-08T01:42:43;4.45;72.15
66752;SHT31;53663;42.676;23.238;2023-04-08T01:45:10;4.38;72.65
66752;SHT31;53663;42.676;23.238;2023-04-08T01:47:37;4.40;72.69
66752;SHT31;53663;42.676;23.238;2023-04-08T01:50:05;4.41;72.81
66752;SHT31;53663;42.676;23.238;2023-04-08T01:52:34;4.41;72.23
66752;SHT31;53663;42.676;23.238;2023-04-08T01:55:00;4.41;72.26
66752;SHT31;53663;42.676;23.238;2023-04-08T01:57:31;4.44;72.56
66752;SHT31;53663;42.676;23.238;2023-04-08T02:00:05;4.40;72.56
66752;SHT31;53663;42.676;23.238;2023-04-08T02:02:45;4.36;72.50
66752;SHT31;53663;42.676;23.238;2023-04-08T02:05:12;4.38;72.71
66752;SHT31;53663;42.676;23.238;2023-04-08T02:07:38;4.41;72.59
66752;SHT31;53663;42.676;23.238;2023-04-08T02:10:04;4.43;72.13
66752;SHT31;53663;42.676;23.238;2023-04-08T02:12:34;4.47;72.13
66752;SHT31;53663;42.676;23.238;2023-04-08T02:14:59;4.40;72.32
66752;SHT31;53663;42.676;23.238;2023-04-08T02:17:35;4.41;72.32
66752;SHT31;53663;42.676;23.238;2023-04-08T02:20:11;4.38;72.17
66752;SHT31;53663;42.676;23.238;2023-04-08T02:22:43;4.47;71.82
66752;SHT31;53663;42.676;23.238;2023-04-08T02:25:13;4.50;71.79
66752;SHT31;53663;42.676;23.238;2023-04-08T02:27:40;4.48;71.89
66752;SHT31;53663;42.676;23.238;2023-04-08T02:30:07;4.52;71.18
66752;SHT31;53663;42.676;23.238;2023-04-08T02:32:35;4.50;71.35
66752;SHT31;53663;42.676;23.238;2023-04-08T02:35:01;4.43;71.48
66752;SHT31;53663;42.676;23.238;2023-04-08T02:37:29;4.40;71.82
66752;SHT31;53663;42.676;23.238;2023-04-08T02:39:55;4.40;71.56
66752;SHT31;53663;42.676;23.238;2023-04-08T02:42:20;4.54;71.10
66752;SHT31;53663;42.676;23.238;2023-04-08T02:44:46;4.55;71.22
66752;SHT31;53663;42.676;23.238;2023-04-08T02:47:11;4.57;71.46
66752;SHT31;53663;42.676;23.238;2023-04-08T02:49:37;4.60;71.10
66752;SHT31;53663;42.676;23.238;2023-04-08T02:52:02;4.41;71.88
66752;SHT31;53663;42.676;23.238;2023-04-08T02:54:28;4.45;72.17
66752;SHT31;53663;42.676;23.238;2023-04-08T02:56:54;4.50;72.16
66752;SHT31;53663;42.676;23.238;2023-04-08T02:59:20;4.44;72.14
66752;SHT31;53663;42.676;23.238;2023-04-08T03:01:45;4.36;72.32
66752;SHT31;53663;42.676;23.238;2023-04-08T03:04:11;4.40;72.15
66752;SHT31;53663;42.676;23.238;2023-04-08T03:06:36;4.30;72.10
66752;SHT31;53663;42.676;23.238;2023-04-08T03:09:02;4.38;71.92
66752;SHT31;53663;42.676;23.238;2023-04-08T03:11:27;4.50;71.71
66752;SHT31;53663;42.676;23.238;2023-04-08T03:13:53;4.50;71.49
66752;SHT31;53663;42.676;23.238;2023-04-08T03:16:18;4.52;72.09
66752;SHT31;53663;42.676;23.238;2023-04-08T03:18:44;4.51;72.76
66752;SHT31;53663;42.676;23.238;2023-04-08T03:21:09;4.55;72.97
66752;SHT31;53663;42.676;23.238;2023-04-08T03:23:35;4.50;72.96
66752;SHT31;53663;42.676;23.238;2023-04-08T03:26:00;4.47;72.49
66752;SHT31;53663;42.676;23.238;2023-04-08T03:28:26;4.43;72.24
66752;SHT31;53663;42.676;23.238;2023-04-08T03:30:51;4.40;72.51
66752;SHT31;53663;42.676;23.238;2023-04-08T03:33:17;4.36;72.70
66752;SHT31;53663;42.676;23.238;2023-04-08T03:35:42;4.24;73.32
66752;SHT31;53663;42.676;23.238;2023-04-08T03:38:08;4.17;72.98
66752;SHT31;53663;42.676;23.238;2023-04-08T03:40:33;4.21;72.72
66752;SHT31;53663;42.676;23.238;2023-04-08T03:42:59;4.30;72.72
66752;SHT31;53663;42.676;23.238;2023-04-08T03:45:24;4.27;72.79
66752;SHT31;53663;42.676;23.238;2023-04-08T03:47:50;4.23;72.55
66752;SHT31;53663;42.676;23.238;2023-04-08T03:50:16;3.97;73.30
66752;SHT31;53663;42.676;23.238;2023-04-08T03:52:41;3.97;73.80
66752;SHT31;53663;42.676;23.238;2023-04-08T03:55:07;4.04;73.50
66752;SHT31;53663;42.676;23.238;2023-04-08T03:57:33;3.94;73.51
66752;SHT31;53663;42.676;23.238;2023-04-08T03:59:58;4.02;73.48
66752;SHT31;53663;42.676;23.238;2023-04-08T04:02:24;4.14;73.45
66752;SHT31;53663;42.676;23.238;2023-04-08T04:04:49;4.24;73.41
66752;SHT31;53663;42.676;23.238;2023-04-08T04:07:15;4.25;73.25
66752;SHT31;53663;42.676;23.238;2023-04-08T04:09:40;4.25;73.23
66752;SHT31;53663;42.676;23.238;2023-04-08T04:12:06;4.31;73.48
66752;SHT31;53663;42.676;23.238;2023-04-08T04:14:31;4.30;73.45
66752;SHT31;53663;42.676;23.238;2023-04-08T04:16:57;4.40;73.60
66752;SHT31;53663;42.676;23.238;2023-04-08T04:19:22;4.38;73.62
66752;SHT31;53663;42.676;23.238;2023-04-08T04:21:47;4.34;73.89
66752;SHT31;53663;42.676;23.238;2023-04-08T04:24:13;4.40;73.83
66752;SHT31;53663;42.676;23.238;2023-04-08T04:26:41;4.38;73.46
66752;SHT31;53663;42.676;23.238;2023-04-08T04:29:07;4.37;73.66
66752;SHT31;53663;42.676;23.238;2023-04-08T04:31:34;4.41;72.99
66752;SHT31;53663;42.676;23.238;2023-04-08T04:33:59;4.43;73.10
66752;SHT31;53663;42.676;23.238;2023-04-08T04:36:25;4.38;73.24
66752;SHT31;53663;42.676;23.238;2023-04-08T04:38:50;4.37;73.24
66752;SHT31;53663;42.676;23.238;2023-04-08T04:41:16;4.29;73.87
66752;SHT31;53663;42.676;23.238;2023-04-08T04:43:42;4.18;74.15
66752;SHT31;53663;42.676;23.238;2023-04-08T04:46:07;4.04;74.43
66752;SHT31;53663;42.676;23.238;2023-04-08T04:48:36;4.14;74.03
66752;SHT31;53663;42.676;23.238;2023-04-08T04:51:02;4.41;72.94
66752;SHT31;53663;42.676;23.238;2023-04-08T04:53:28;4.48;72.53
66752;SHT31;53663;42.676;23.238;2023-04-08T04:55:54;4.55;72.08
66752;SHT31;53663;42.676;23.238;2023-04-08T04:58:20;4.48;71.71
66752;SHT31;53663;42.676;23.238;2023-04-08T05:00:45;4.48;71.02
66752;SHT31;53663;42.676;23.238;2023-04-08T05:03:11;4.44;71.51
66752;SHT31;53663;42.676;23.238;2023-04-08T05:05:37;4.52;71.24
66752;SHT31;53663;42.676;23.238;2023-04-08T05:08:03;4.52;71.37
66752;SHT31;53663;42.676;23.238;2023-04-08T05:10:28;4.67;70.77
66752;SHT31;53663;42.676;23.238;2023-04-08T05:12:54;4.71;70.19
66752;SHT31;53663;42.676;23.238;2023-04-08T05:15:19;4.76;69.74
66752;SHT31;53663;42.676;23.238;2023-04-08T05:17:45;4.79;70.05
66752;SHT31;53663;42.676;23.238;2023-04-08T05:20:11;4.82;70.42
66752;SHT31;53663;42.676;23.238;2023-04-08T05:22:36;4.96;69.26
66752;SHT31;53663;42.676;23.238;2023-04-08T05:25:02;5.06;68.71
66752;SHT31;53663;42.676;23.238;2023-04-08T05:27:28;5.08;68.85
66752;SHT31;53663;42.676;23.238;2023-04-08T05:29:53;5.20;69.20
66752;SHT31;53663;42.676;23.238;2023-04-08T05:32:19;5.36;68.82
66752;SHT31;53663;42.676;23.238;2023-04-08T05:34:45;5.50;68.77
66752;SHT31;53663;42.676;23.238;2023-04-08T05:37:10;5.33;68.72
66752;SHT31;53663;42.676;23.238;2023-04-08T05:39:36;5.40;68.47
66752;SHT31;53663;42.676;23.238;2023-04-08T05:42:01;5.08;68.55
66752;SHT31;53663;42.676;23.238;2023-04-08T05:44:27;4.92;69.45
66752;SHT31;53663;42.676;23.238;2023-04-08T05:46:52;5.18;68.90
66752;SHT31;53663;42.676;23.238;2023-04-08T05:49:19;5.31;68.30
66752;SHT31;53663;42.676;23.238;2023-04-08T05:51:45;5.47;68.93
66752;SHT31;53663;42.676;23.238;2023-04-08T05:54:10;5.09;68.94
66752;SHT31;53663;42.676;23.238;2023-04-08T05:56:36;4.97;69.83
66752;SHT31;53663;42.676;23.238;2023-04-08T05:59:01;5.37;67.99
66752;SHT31;53663;42.676;23.238;2023-04-08T06:01:27;5.22;68.07
66752;SHT31;53663;42.676;23.238;2023-04-08T06:03:52;5.30;68.92
66752;SHT31;53663;42.676;23.238;2023-04-08T06:06:20;5.62;67.68
66752;SHT31;53663;42.676;23.238;2023-04-08T06:08:45;5.70;66.82
66752;SHT31;53663;42.676;23.238;2023-04-08T06:11:11;5.81;66.44
66752;SHT31;53663;42.676;23.238;2023-04-08T06:13:37;6.10;66.83
66752;SHT31;53663;42.676;23.238;2023-04-08T06:16:12;6.29;66.42
66752;SHT31;53663;42.676;23.238;2023-04-08T06:18:38;6.43;65.66
66752;SHT31;53663;42.676;23.238;2023-04-08T06:21:04;6.67;64.93
66752;SHT31;53663;42.676;23.238;2023-04-08T06:23:30;6.92;63.96
66752;SHT31;53663;42.676;23.238;2023-04-08T06:25:56;6.91;65.59
66752;SHT31;53663;42.676;23.238;2023-04-08T06:28:21;7.11;63.12
66752;SHT31;53663;42.676;23.238;2023-04-08T06:30:47;6.85;63.98
66752;SHT31;53663;42.676;23.238;2023-04-08T06:33:12;7.08;62.91
66752;SHT31;53663;42.676;23.238;2023-04-08T06:35:37;7.16;62.30
66752;SHT31;53663;42.676;23.238;2023-04-08T06:38:03;7.33;61.58
66752;SHT31;53663;42.676;23.238;2023-04-08T06:40:28;7.43;61.79
66752;SHT31;53663;42.676;23.238;2023-04-08T06:42:54;7.25;62.32
66752;SHT31;53663;42.676;23.238;2023-04-08T06:45:31;7.22;62.28
66752;SHT31;53663;42.676;23.238;2023-04-08T06:47:56;7.02;63.07
66752;SHT31;53663;42.676;23.238;2023-04-08T06:50:22;7.12;63.14
66752;SHT31;53663;42.676;23.238;2023-04-08T06:52:47;7.01;63.22
66752;SHT31;53663;42.676;23.238;2023-04-08T06:55:13;7.02;63.18
66752;SHT31;53663;42.676;23.238;2023-04-08T06:57:38;6.91;63.18
66752;SHT31;53663;42.676;23.238;2023-04-08T07:00:06;6.71;65.13
66752;SHT31;53663;42.676;23.238;2023-04-08T07:02:31;6.89;63.91
66752;SHT31;53663;42.676;23.238;2023-04-08T07:04:57;7.14;63.14
66752;SHT31;53663;42.676;23.238;2023-04-08T07:07:22;7.40;62.38
66752;SHT31;53663;42.676;23.238;2023-04-08T07:09:49;7.49;61.43
66752;SHT31;53663;42.676;23.238;2023-04-08T07:12:15;7.46;61.50
66752;SHT31;53663;42.676;23.238;2023-04-08T07:14:40;7.32;62.22
66752;SHT31;53663;42.676;23.238;2023-04-08T07:17:06;7.37;62.07
66752;SHT31;53663;42.676;23.238;2023-04-08T07:19:31;7.25;61.97
66752;SHT31;53663;42.676;23.238;2023-04-08T07:21:57;7.29;62.89
66752;SHT31;53663;42.676;23.238;2023-04-08T07:24:23;7.42;61.99
66752;SHT31;53663;42.676;23.238;2023-04-08T07:26:48;7.84;59.98
66752;SHT31;53663;42.676;23.238;2023-04-08T07:29:14;7.78;61.27
66752;SHT31;53663;42.676;23.238;2023-04-08T07:31:42;8.09;60.39
66752;SHT31;53663;42.676;23.238;2023-04-08T07:34:08;8.25;60.27
66752;SHT31;53663;42.676;23.238;2023-04-08T07:36:33;8.53;58.81
66752;SHT31;53663;42.676;23.238;2023-04-08T07:38:59;8.72;58.18
66752;SHT31;53663;42.676;23.238;2023-04-08T07:41:25;8.33;58.57
66752;SHT31;53663;42.676;23.238;2023-04-08T07:43:50;8.31;60.04
66752;SHT31;53663;42.676;23.238;2023-04-08T07:46:16;8.35;59.44
66752;SHT31;53663;42.676;23.238;2023-04-08T07:48:41;8.59;58.66
66752;SHT31;53663;42.676;23.238;2023-04-08T07:51:08;8.83;57.05
66752;SHT31;53663;42.676;23.238;2023-04-08T07:53:34;8.91;57.73
66752;SHT31;53663;42.676;23.238;2023-04-08T07:56:00;9.03;56.82
66752;SHT31;53663;42.676;23.238;2023-04-08T07:58:28;8.99;57.57
66752;SHT31;53663;42.676;23.238;2023-04-08T08:00:54;8.84;58.59
66752;SHT31;53663;42.676;23.238;2023-04-08T08:03:21;9.12;56.85
66752;SHT31;53663;42.676;23.238;2023-04-08T08:05:47;8.83;58.52
66752;SHT31;53663;42.676;23.238;2023-04-08T08:08:13;9.03;57.21
66752;SHT31;53663;42.676;23.238;2023-04-08T08:10:38;9.20;56.31
66752;SHT31;53663;42.676;23.238;2023-04-08T08:13:05;9.03;56.50
66752;SHT31;53663;42.676;23.238;2023-04-08T08:15:31;9.11;56.39
66752;SHT31;53663;42.676;23.238;2023-04-08T08:17:57;9.14;58.56
66752;SHT31;53663;42.676;23.238;2023-04-08T08:20:22;9.39;56.42
66752;SHT31;53663;42.676;23.238;2023-04-08T08:22:48;9.49;56.59
66752;SHT31;53663;42.676;23.238;2023-04-08T08:25:13;9.18;58.16
66752;SHT31;53663;42.676;23.238;2023-04-08T08:27:39;9.03;60.45
66752;SHT31;53663;42.676;23.238;2023-04-08T08:30:07;9.42;56.08
66752;SHT31;53663;42.676;23.238;2023-04-08T08:32:33;9.30;56.43
66752;SHT31;53663;42.676;23.238;2023-04-08T08:35:00;9.24;57.10
66752;SHT31;53663;42.676;23.238;2023-04-08T08:37:25;9.49;56.93
66752;SHT31;53663;42.676;23.238;2023-04-08T08:39:51;9.62;56.41
66752;SHT31;53663;42.676;23.238;2023-04-08T08:42:21;9.73;56.31
66752;SHT31;53663;42.676;23.238;2023-04-08T08:44:47;9.68;56.30
66752;SHT31;53663;42.676;23.238;2023-04-08T08:47:14;9.53;56.33
66752;SHT31;53663;42.676;23.238;2023-04-08T08:49:39;9.62;56.17
66752;SHT31;53663;42.676;23.238;2023-04-08T08:52:05;9.82;56.39
66752;SHT31;53663;42.676;23.238;2023-04-08T08:54:31;10.04;56.40
66752;SHT31;53663;42.676;23.238;2023-04-08T08:56:57;10.06;55.85
66752;SHT31;53663;42.676;23.238;2023-04-08T08:59:22;10.04;55.98
66752;SHT31;53663;42.676;23.238;2023-04-08T09:01:48;10.21;56.24
66752;SHT31;53663;42.676;23.238;2023-04-08T09:04:18;10.38;56.61
66752;SHT31;53663;42.676;23.238;2023-04-08T09:06:44;10.96;54.55
66752;SHT31;53663;42.676;23.238;2023-04-08T09:09:11;11.05;52.68
66752;SHT31;53663;42.676;23.238;2023-04-08T09:11:41;11.09;53.35
66752;SHT31;53663;42.676;23.238;2023-04-08T09:14:20;10.97;53.02
66752;SHT31;53663;42.676;23.238;2023-04-08T09:16:45;11.38;52.78
66752;SHT31;53663;42.676;23.238;2023-04-08T09:19:11;11.85;51.12
66752;SHT31;53663;42.676;23.238;2023-04-08T09:21:37;12.47;50.45
66752;SHT31;53663;42.676;23.238;2023-04-08T09:24:05;13.09;48.89
66752;SHT31;53663;42.676;23.238;2023-04-08T09:26:30;13.73;49.45
66752;SHT31;53663;42.676;23.238;2023-04-08T09:29:04;14.34;45.09
66752;SHT31;53663;42.676;23.238;2023-04-08T09:31:34;14.89;43.44
66752;SHT31;53663;42.676;23.238;2023-04-08T09:34:13;15.16;45.07
66752;SHT31;53663;42.676;23.238;2023-04-08T09:36:41;15.04;42.91
66752;SHT31;53663;42.676;23.238;2023-04-08T09:39:06;14.77;45.17
66752;SHT31;53663;42.676;23.238;2023-04-08T09:41:36;14.75;44.04
66752;SHT31;53663;42.676;23.238;2023-04-08T09:44:04;14.68;46.21
66752;SHT31;53663;42.676;23.238;2023-04-08T09:46:55;13.81;45.31
66752;SHT31;53663;42.676;23.238;2023-04-08T09:49:34;13.67;45.92
66752;SHT31;53663;42.676;23.238;2023-04-08T09:52:07;14.26;45.82
66752;SHT31;53663;42.676;23.238;2023-04-08T10:00:14;14.08;45.50
66752;SHT31;53663;42.676;23.238;2023-04-08T10:03:11;14.25;44.60
66752;SHT31;53663;42.676;23.238;2023-04-08T10:05:40;14.15;44.09
66752;SHT31;53663;42.676;23.238;2023-04-08T10:08:08;14.42;44.88
66752;SHT31;53663;42.676;23.238;2023-04-08T10:10:35;15.30;42.62
66752;SHT31;53663;42.676;23.238;2023-04-08T10:13:03;15.24;42.17
66752;SHT31;53663;42.676;23.238;2023-04-08T10:15:29;15.40;45.41
66752;SHT31;53663;42.676;23.238;2023-04-08T10:20:45;14.68;43.11
66752;SHT31;53663;42.676;23.238;2023-04-08T10:23:13;13.71;44.39
66752;SHT31;53663;42.676;23.238;2023-04-08T10:25:46;13.20;47.04
66752;SHT31;53663;42.676;23.238;2023-04-08T10:30:43;12.67;47.13
66752;SHT31;53663;42.676;23.238;2023-04-08T10:33:17;12.67;49.00
66752;SHT31;53663;42.676;23.238;2023-04-08T10:35:48;12.19;48.69
66752;SHT31;53663;42.676;23.238;2023-04-08T10:38:14;12.28;49.68
66752;SHT31;53663;42.676;23.238;2023-04-08T10:40:41;12.41;48.37
66752;SHT31;53663;42.676;23.238;2023-04-08T10:43:08;12.91;47.96
66752;SHT31;53663;42.676;23.238;2023-04-08T10:45:34;13.36;46.32
66752;SHT31;53663;42.676;23.238;2023-04-08T10:50:37;12.54;48.32
66752;SHT31;53663;42.676;23.238;2023-04-08T10:53:04;12.15;49.77
66752;SHT31;53663;42.676;23.238;2023-04-08T10:55:29;12.01;50.58
66752;SHT31;53663;42.676;23.238;2023-04-08T10:58:07;12.36;51.03
66752;SHT31;53663;42.676;23.238;2023-04-08T11:00:38;12.60;49.63
66752;SHT31;53663;42.676;23.238;2023-04-08T11:03:09;12.05;50.74
66752;SHT31;53663;42.676;23.238;2023-04-08T11:05:35;12.30;50.47
66752;SHT31;53663;42.676;23.238;2023-04-08T11:08:03;12.77;49.03
66752;SHT31;53663;42.676;23.238;2023-04-08T11:10:29;12.61;49.00
66752;SHT31;53663;42.676;23.238;2023-04-08T11:12:55;12.30;50.42
66752;SHT31;53663;42.676;23.238;2023-04-08T11:15:22;12.74;48.69
66752;SHT31;53663;42.676;23.238;2023-04-08T11:17:49;13.19;46.35
66752;SHT31;53663;42.676;23.238;2023-04-08T11:20:14;13.02;48.66
66752;SHT31;53663;42.676;23.238;2023-04-08T11:22:40;12.85;47.49
66752;SHT31;53663;42.676;23.238;2023-04-08T11:25:09;12.74;48.00
66752;SHT31;53663;42.676;23.238;2023-04-08T11:27:35;12.28;49.44
66752;SHT31;53663;42.676;23.238;2023-04-08T11:30:01;12.49;48.38
66752;SHT31;53663;42.676;23.238;2023-04-08T11:32:28;12.39;48.42
66752;SHT31;53663;42.676;23.238;2023-04-08T11:34:53;12.43;48.53
66752;SHT31;53663;42.676;23.238;2023-04-08T11:37:19;12.30;48.17
66752;SHT31;53663;42.676;23.238;2023-04-08T11:39:45;12.33;49.11
66752;SHT31;53663;42.676;23.238;2023-04-08T11:44:52;12.34;48.73
66752;SHT31;53663;42.676;23.238;2023-04-08T11:47:18;12.46;47.96
66752;SHT31;53663;42.676;23.238;2023-04-08T11:49:45;12.60;47.32
66752;SHT31;53663;42.676;23.238;2023-04-08T11:52:10;12.77;47.39
66752;SHT31;53663;42.676;23.238;2023-04-08T11:54:40;12.57;46.55
66752;SHT31;53663;42.676;23.238;2023-04-08T11:57:06;11.65;47.18
66752;SHT31;53663;42.676;23.238;2023-04-08T11:59:37;11.27;48.46
66752;SHT31;53663;42.676;23.238;2023-04-08T12:02:03;11.53;48.57
66752;SHT31;53663;42.676;23.238;2023-04-08T12:04:28;11.70;49.79
66752;SHT31;53663;42.676;23.238;2023-04-08T12:06:54;11.79;48.07
66752;SHT31;53663;42.676;23.238;2023-04-08T12:09:21;11.92;47.45
66752;SHT31;53663;42.676;23.238;2023-04-08T12:11:47;11.92;47.86
66752;SHT31;53663;42.676;23.238;2023-04-08T12:14:13;11.92;48.02
66752;SHT31;53663;42.676;23.238;2023-04-08T12:16:38;11.84;47.73
66752;SHT31;53663;42.676;23.238;2023-04-08T12:19:04;11.82;48.52
66752;SHT31;53663;42.676;23.238;2023-04-08T12:21:30;11.86;49.04
66752;SHT31;53663;42.676;23.238;2023-04-08T12:23:56;11.79;48.59
66752;SHT31;53663;42.676;23.238;2023-04-08T12:26:22;11.82;49.20
66752;SHT31;53663;42.676;23.238;2023-04-08T12:28:48;11.65;50.18
66752;SHT31;53663;42.676;23.238;2023-04-08T12:31:14;11.50;49.93
66752;SHT31;53663;42.676;23.238;2023-04-08T12:33:39;11.60;49.25
66752;SHT31;53663;42.676;23.238;2023-04-08T12:36:05;11.41;50.02
66752;SHT31;53663;42.676;23.238;2023-04-08T12:38:30;11.14;50.78
66752;SHT31;53663;42.676;23.238;2023-04-08T12:40:57;11.03;50.54
66752;SHT31;53663;42.676;23.238;2023-04-08T12:43:23;11.10;51.14
66752;SHT31;53663;42.676;23.238;2023-04-08T12:45:49;11.06;51.29
66752;SHT31;53663;42.676;23.238;2023-04-08T12:48:15;11.03;50.67
66752;SHT31;53663;42.676;23.238;2023-04-08T12:50:40;10.96;50.36
66752;SHT31;53663;42.676;23.238;2023-04-08T12:53:06;10.86;51.37
66752;SHT31;53663;42.676;23.238;2023-04-08T12:55:31;11.00;52.39
66752;SHT31;53663;42.676;23.238;2023-04-08T12:57:57;10.89;55.76
66752;SHT31;53663;42.676;23.238;2023-04-08T13:00:22;10.80;54.96
66752;SHT31;53663;42.676;23.238;2023-04-08T13:02:48;10.96;58.68
66752;SHT31;53663;42.676;23.238;2023-04-08T13:05:13;11.00;58.02
66752;SHT31;53663;42.676;23.238;2023-04-08T13:07:39;11.38;56.96
66752;SHT31;53663;42.676;23.238;2023-04-08T13:10:06;11.44;57.63
66752;SHT31;53663;42.676;23.238;2023-04-08T13:12:32;11.47;53.85
66752;SHT31;53663;42.676;23.238;2023-04-08T13:14:58;11.43;52.98
66752;SHT31;53663;42.676;23.238;2023-04-08T13:17:24;11.38;53.16
66752;SHT31;53663;42.676;23.238;2023-04-08T13:19:50;11.37;54.18
66752;SHT31;53663;42.676;23.238;2023-04-08T13:22:15;11.34;54.02
66752;SHT31;53663;42.676;23.238;2023-04-08T13:24:41;11.37;54.43
66752;SHT31;53663;42.676;23.238;2023-04-08T13:27:22;11.43;52.20
66752;SHT31;53663;42.676;23.238;2023-04-08T13:29:56;11.28;54.61
66752;SHT31;53663;42.676;23.238;2023-04-08T13:32:22;11.44;54.64
66752;SHT31;53663;42.676;23.238;2023-04-08T13:34:55;11.77;51.90
66752;SHT31;53663;42.676;23.238;2023-04-08T13:37:24;12.19;54.48
66752;SHT31;53663;42.676;23.238;2023-04-08T13:39:55;12.61;51.42
66752;SHT31;53663;42.676;23.238;2023-04-08T13:42:21;12.70;51.24
66752;SHT31;53663;42.676;23.238;2023-04-08T13:44:47;12.83;51.22
66752;SHT31;53663;42.676;23.238;2023-04-08T13:47:13;12.83;52.24
66752;SHT31;53663;42.676;23.238;2023-04-08T13:49:39;12.83;50.93
66752;SHT31;53663;42.676;23.238;2023-04-08T13:52:04;12.56;50.83
66752;SHT31;53663;42.676;23.238;2023-04-08T13:54:30;12.64;50.26
66752;SHT31;53663;42.676;23.238;2023-04-08T13:56:55;12.39;50.02
66752;SHT31;53663;42.676;23.238;2023-04-08T13:59:21;12.29;51.53
66752;SHT31;53663;42.676;23.238;2023-04-08T14:01:47;12.28;51.39
66752;SHT31;53663;42.676;23.238;2023-04-08T14:04:12;12.33;50.31
66752;SHT31;53663;42.676;23.238;2023-04-08T14:06:38;11.68;52.59
66752;SHT31;53663;42.676;23.238;2023-04-08T14:09:03;11.26;54.02
66752;SHT31;53663;42.676;23.238;2023-04-08T14:11:29;11.43;54.05
66752;SHT31;53663;42.676;23.238;2023-04-08T14:13:54;11.24;54.67
66752;SHT31;53663;42.676;23.238;2023-04-08T14:16:20;10.83;55.69
66752;SHT31;53663;42.676;23.238;2023-04-08T14:18:45;10.61;57.46
66752;SHT31;53663;42.676;23.238;2023-04-08T14:21:11;10.69;57.37
66752;SHT31;53663;42.676;23.238;2023-04-08T14:23:38;10.68;54.72
66752;SHT31;53663;42.676;23.238;2023-04-08T14:26:03;10.65;55.78
66752;SHT31;53663;42.676;23.238;2023-04-08T14:28:29;10.76;55.50
66752;SHT31;53663;42.676;23.238;2023-04-08T14:30:54;10.65;56.63
66752;SHT31;53663;42.676;23.238;2023-04-08T14:33:20;10.52;58.70
66752;SHT31;53663;42.676;23.238;2023-04-08T14:35:45;10.58;57.72
66752;SHT31;53663;42.676;23.238;2023-04-08T14:38:12;10.45;57.23
66752;SHT31;53663;42.676;23.238;2023-04-08T14:40:37;10.36;58.54
66752;SHT31;53663;42.676;23.238;2023-04-08T14:43:02;10.33;58.44
66752;SHT31;53663;42.676;23.238;2023-04-08T14:45:28;10.13;58.83
66752;SHT31;53663;42.676;23.238;2023-04-08T14:47:53;10.16;58.47
66752;SHT31;53663;42.676;23.238;2023-04-08T14:50:19;10.07;58.79
66752;SHT31;53663;42.676;23.238;2023-04-08T14:52:44;9.96;58.71
66752;SHT31;53663;42.676;23.238;2023-04-08T14:55:12;9.78;59.84
66752;SHT31;53663;42.676;23.238;2023-04-08T14:57:38;9.78;59.98
66752;SHT31;53663;42.676;23.238;2023-04-08T15:00:04;9.79;60.58
66752;SHT31;53663;42.676;23.238;2023-04-08T15:02:29;9.79;60.10
66752;SHT31;53663;42.676;23.238;2023-04-08T15:04:55;9.66;61.63
66752;SHT31;53663;42.676;23.238;2023-04-08T15:07:20;9.72;62.00
66752;SHT31;53663;42.676;23.238;2023-04-08T15:09:46;9.66;62.19
66752;SHT31;53663;42.676;23.238;2023-04-08T15:12:12;9.68;61.46
66752;SHT31;53663;42.676;23.238;2023-04-08T15:14:37;9.72;62.08
66752;SHT31;53663;42.676;23.238;2023-04-08T15:17:03;9.78;61.22
66752;SHT31;53663;42.676;23.238;2023-04-08T15:19:28;9.80;61.32
66752;SHT31;53663;42.676;23.238;2023-04-08T15:21:54;9.86;60.90
66752;SHT31;53663;42.676;23.238;2023-04-08T15:24:20;9.97;60.70
66752;SHT31;53663;42.676;23.238;2023-04-08T15:26:45;10.00;60.02
66752;SHT31;53663;42.676;23.238;2023-04-08T15:29:11;9.93;60.55
66752;SHT31;53663;42.676;23.238;2023-04-08T15:31:36;10.07;59.51
66752;SHT31;53663;42.676;23.238;2023-04-08T15:34:02;10.00;59.11
66752;SHT31;53663;42.676;23.238;2023-04-08T15:36:28;10.03;58.76
66752;SHT31;53663;42.676;23.238;2023-04-08T15:38:54;10.13;58.14
66752;SHT31;53663;42.676;23.238;2023-04-08T15:41:19;10.01;58.88
66752;SHT31;53663;42.676;23.238;2023-04-08T15:43:48;9.94;59.18